Time;durP1;ratioP1;P1;durP2;ratioP2;P2;SDS_P1;SDS_P2;PMS_P1;PMS_P2;Temp;Humidity;BMP_temperature;BMP_pressure;BME280_temperature;BME280_humidity;BME280_pressure;Samples;Min_cycle;Max_cycle;Signal;HPM_P1;HPM_P2
2022/10/16 00:00:45;;;;;;;1.10;0.80;;;16.60;99.90;;;;;;5032490;28;20435;-77
2022/10/16 00:03:11;;;;;;;2.20;0.70;;;16.60;99.90;;;;;;5032833;28;20446;-77
2022/10/16 00:05:42;;;;;;;1.17;0.77;;;16.60;99.90;;;;;;5032534;28;20444;-77
2022/10/16 00:08:09;;;;;;;4.40;0.77;;;16.50;99.90;;;;;;5032872;28;20424;-77
2022/10/16 00:10:35;;;;;;;1.33;0.77;;;16.50;99.90;;;;;;5032918;28;20464;-77
2022/10/16 00:13:01;;;;;;;1.63;0.90;;;16.50;99.90;;;;;;5033160;28;20554;-77
2022/10/16 00:15:27;;;;;;;2.10;0.70;;;16.50;99.90;;;;;;5033263;28;20490;-77
2022/10/16 00:17:52;;;;;;;2.70;0.83;;;16.50;99.90;;;;;;5032182;28;20921;-76
2022/10/16 00:20:18;;;;;;;3.23;0.83;;;16.50;99.90;;;;;;5014681;28;20563;-77
2022/10/16 00:22:43;;;;;;;3.60;0.93;;;16.40;99.90;;;;;;5031261;28;20196;-77
2022/10/16 00:25:09;;;;;;;3.47;0.80;;;16.30;99.90;;;;;;5031514;28;20229;-76
2022/10/16 00:27:35;;;;;;;1.73;0.90;;;16.30;99.90;;;;;;5032333;28;20209;-76
2022/10/16 00:30:01;;;;;;;2.00;0.90;;;16.30;99.90;;;;;;5030216;28;20580;-77
2022/10/16 00:32:26;;;;;;;2.23;0.90;;;16.30;99.90;;;;;;5032091;28;20259;-77
2022/10/16 00:34:54;;;;;;;1.33;0.70;;;16.20;99.90;;;;;;5030515;28;20556;-77
2022/10/16 00:37:20;;;;;;;3.53;0.70;;;16.20;99.90;;;;;;5031720;28;20203;-77
2022/10/16 00:39:45;;;;;;;1.30;0.73;;;16.20;99.90;;;;;;5030254;28;20444;-77
2022/10/16 00:42:16;;;;;;;1.27;0.70;;;16.20;99.90;;;;;;5031648;28;20526;-76
2022/10/16 00:44:46;;;;;;;2.20;0.60;;;16.20;99.90;;;;;;5030396;28;20696;-77
2022/10/16 00:47:21;;;;;;;1.07;0.90;;;16.20;99.90;;;;;;5031603;28;20412;-76
2022/10/16 00:49:48;;;;;;;2.20;0.70;;;16.20;99.90;;;;;;5031464;28;20948;-77
2022/10/16 00:52:14;;;;;;;3.23;1.07;;;16.20;99.90;;;;;;5032475;28;20420;-79
2022/10/16 00:54:40;;;;;;;2.30;0.77;;;16.10;99.90;;;;;;5014839;28;20483;-78
2022/10/16 00:57:06;;;;;;;3.10;0.90;;;16.10;99.90;;;;;;5032279;28;20422;-79
2022/10/16 00:59:38;;;;;;;2.63;0.87;;;16.20;99.90;;;;;;5032060;28;20840;-78
2022/10/16 01:02:06;;;;;;;1.17;0.80;;;16.20;99.90;;;;;;5030630;28;20417;-78
2022/10/16 01:04:45;;;;;;;2.77;0.97;;;16.30;99.90;;;;;;5031757;28;20433;-78
2022/10/16 01:07:25;;;;;;;1.00;0.53;;;16.20;99.90;;;;;;5031665;28;20415;-78
2022/10/16 01:10:17;;;;;;;2.03;1.00;;;16.30;99.90;;;;;;5030096;28;20509;-78
2022/10/16 01:13:00;;;;;;;1.10;0.83;;;16.30;99.90;;;;;;5030305;28;20489;-78
2022/10/16 01:15:29;;;;;;;3.50;0.70;;;16.30;99.90;;;;;;5031678;28;21009;-77
2022/10/16 01:18:07;;;;;;;1.00;0.70;;;16.30;99.90;;;;;;5032161;28;20406;-78
2022/10/16 01:20:38;;;;;;;1.20;0.90;;;16.30;99.90;;;;;;5031861;28;20895;-77
2022/10/16 01:23:13;;;;;;;3.73;0.80;;;16.30;99.90;;;;;;5035225;28;20452;-77
2022/10/16 01:26:03;;;;;;;1.03;0.80;;;16.50;99.90;;;;;;5034605;28;20582;-77
2022/10/16 01:28:56;;;;;;;3.47;1.10;;;16.50;99.90;;;;;;5034008;28;20417;-77
2022/10/16 01:31:25;;;;;;;1.50;0.70;;;16.60;99.90;;;;;;5031303;28;20435;-77
2022/10/16 01:34:05;;;;;;;4.30;0.97;;;16.60;99.90;;;;;;5033160;28;20470;-77
2022/10/16 01:36:48;;;;;;;4.90;0.93;;;16.60;99.90;;;;;;5014956;28;20453;-77
2022/10/16 01:39:19;;;;;;;1.57;0.70;;;16.60;99.90;;;;;;5030765;28;20430;-76
2022/10/16 01:41:49;;;;;;;1.20;0.80;;;16.50;99.90;;;;;;5032412;28;20416;-76
2022/10/16 01:44:23;;;;;;;1.67;0.60;;;16.40;99.90;;;;;;5031379;28;20456;-77
2022/10/16 01:46:51;;;;;;;3.80;0.93;;;16.50;99.90;;;;;;5031762;28;20424;-78
2022/10/16 01:49:18;;;;;;;3.83;1.10;;;16.50;99.90;;;;;;5030065;28;20474;-76
2022/10/16 01:51:47;;;;;;;1.10;0.77;;;16.50;99.90;;;;;;5031464;28;20413;-77
2022/10/16 01:54:14;;;;;;;1.50;0.90;;;16.50;99.90;;;;;;5029606;28;20473;-77
2022/10/16 01:56:41;;;;;;;2.37;1.00;;;16.50;99.90;;;;;;5031443;28;20416;-77
2022/10/16 01:59:12;;;;;;;0.80;0.77;;;16.50;99.90;;;;;;5030611;28;20950;-76
2022/10/16 02:01:42;;;;;;;1.50;0.70;;;16.50;99.90;;;;;;5028920;28;20466;-76
2022/10/16 02:04:20;;;;;;;1.23;0.90;;;16.60;99.90;;;;;;5029123;28;20432;-75
2022/10/16 02:06:45;;;;;;;6.20;1.00;;;16.40;99.90;;;;;;5030105;28;20470;-77
2022/10/16 02:09:11;;;;;;;3.37;1.07;;;16.50;99.90;;;;;;5028877;28;20428;-76
2022/10/16 02:11:37;;;;;;;7.23;0.70;;;16.60;99.90;;;;;;5028753;28;20193;-77
2022/10/16 02:14:05;;;;;;;6.20;1.23;;;16.60;99.90;;;;;;5012183;28;20221;-76
2022/10/16 02:16:40;;;;;;;1.50;0.87;;;16.70;99.90;;;;;;5028901;28;20308;-77
2022/10/16 02:19:07;;;;;;;3.43;1.00;;;16.60;99.90;;;;;;5030174;28;20416;-76
2022/10/16 02:21:42;;;;;;;0.80;0.80;;;16.70;99.90;;;;;;5030248;28;20419;-76
2022/10/16 02:24:08;;;;;;;3.17;0.80;;;16.70;99.90;;;;;;5030205;28;20401;-76
2022/10/16 02:27:03;;;;;;;1.10;0.90;;;16.80;99.90;;;;;;5030129;28;20471;-76
2022/10/16 02:29:28;;;;;;;1.00;0.77;;;16.80;99.90;;;;;;5030227;28;20165;-76
2022/10/16 02:31:59;;;;;;;1.43;1.10;;;16.80;99.90;;;;;;5030709;28;20408;-76
2022/10/16 02:34:27;;;;;;;2.37;1.00;;;16.80;99.90;;;;;;5030333;28;20571;-77
2022/10/16 02:36:53;;;;;;;1.23;1.00;;;16.80;99.90;;;;;;5013048;28;20435;-77
2022/10/16 02:39:20;;;;;;;1.93;1.10;;;16.80;99.90;;;;;;5030710;28;20425;-75
2022/10/16 02:41:46;;;;;;;1.50;1.30;;;16.80;99.90;;;;;;5030986;28;20827;-76
2022/10/16 02:44:11;;;;;;;2.73;0.80;;;16.80;99.90;;;;;;5031273;28;20521;-77
2022/10/16 02:46:37;;;;;;;1.63;0.73;;;16.70;99.90;;;;;;5029532;28;20235;-75
2022/10/16 02:49:03;;;;;;;1.57;0.90;;;16.70;99.90;;;;;;5031096;28;20181;-78
2022/10/16 02:51:28;;;;;;;1.57;1.00;;;16.60;99.90;;;;;;5032238;28;20245;-77
2022/10/16 02:53:54;;;;;;;1.97;1.00;;;16.60;99.90;;;;;;5029895;28;20211;-77
2022/10/16 02:56:20;;;;;;;1.60;1.00;;;16.60;99.90;;;;;;5031212;28;20288;-79
2022/10/16 02:58:45;;;;;;;1.40;1.13;;;16.60;99.90;;;;;;5029150;28;20926;-79
2022/10/16 03:01:12;;;;;;;3.47;0.97;;;16.60;99.90;;;;;;5012787;28;20205;-78
2022/10/16 03:03:38;;;;;;;1.30;1.10;;;16.70;99.90;;;;;;5030492;28;20290;-78
2022/10/16 03:06:04;;;;;;;5.20;1.10;;;16.60;99.90;;;;;;5030927;28;20477;-78
2022/10/16 03:08:30;;;;;;;1.93;1.00;;;16.70;99.90;;;;;;5030598;28;20448;-77
2022/10/16 03:10:56;;;;;;;9.90;0.97;;;16.60;99.90;;;;;;5030603;28;20853;-78
2022/10/16 03:13:21;;;;;;;2.83;0.97;;;16.60;99.90;;;;;;5028873;28;20301;-77
2022/10/16 03:15:47;;;;;;;5.30;0.83;;;16.60;99.90;;;;;;5030167;28;20983;-77
2022/10/16 03:18:13;;;;;;;4.33;1.40;;;16.60;99.90;;;;;;5030498;28;20174;-77
2022/10/16 03:20:39;;;;;;;2.03;0.90;;;16.60;99.90;;;;;;5030334;28;20501;-77
2022/10/16 03:23:04;;;;;;;1.00;0.90;;;16.60;99.90;;;;;;5028734;28;20585;-78
2022/10/16 03:25:30;;;;;;;2.43;1.00;;;16.60;99.90;;;;;;5027928;28;20221;-78
2022/10/16 03:27:55;;;;;;;3.23;1.00;;;16.60;99.90;;;;;;5028392;28;20201;-79
2022/10/16 03:30:21;;;;;;;1.10;0.93;;;16.50;99.90;;;;;;5027814;28;20186;-78
2022/10/16 03:32:47;;;;;;;1.73;0.93;;;16.60;99.90;;;;;;5028045;28;20775;-77
2022/10/16 03:35:12;;;;;;;1.50;1.23;;;16.60;99.90;;;;;;5028624;28;20222;-77
2022/10/16 03:37:38;;;;;;;3.90;0.90;;;16.60;99.90;;;;;;5011717;28;20197;-78
2022/10/16 03:40:05;;;;;;;1.10;0.90;;;16.60;99.90;;;;;;5028394;28;20186;-78
2022/10/16 03:42:30;;;;;;;1.50;1.03;;;16.60;99.90;;;;;;5027963;28;20197;-78
2022/10/16 03:44:56;;;;;;;5.43;1.10;;;16.60;99.90;;;;;;5028029;28;20449;-78
2022/10/16 03:47:23;;;;;;;3.83;0.83;;;16.60;99.90;;;;;;5028559;28;20194;-77
2022/10/16 03:49:49;;;;;;;2.00;0.90;;;16.60;99.90;;;;;;5028216;28;20667;-78
2022/10/16 03:52:15;;;;;;;8.23;1.10;;;16.60;99.90;;;;;;5030000;28;20499;-77
2022/10/16 03:54:43;;;;;;;11.33;1.13;;;16.60;99.90;;;;;;5029741;28;20481;-77
2022/10/16 03:57:09;;;;;;;3.87;1.00;;;16.70;99.90;;;;;;5029512;28;20182;-78
2022/10/16 03:59:35;;;;;;;2.70;1.13;;;16.70;99.90;;;;;;5011328;28;20424;-79
2022/10/16 04:02:00;;;;;;;1.67;0.90;;;16.80;99.90;;;;;;5028094;28;20185;-79
2022/10/16 04:04:26;;;;;;;1.23;0.80;;;16.70;99.90;;;;;;5027809;28;20212;-78
2022/10/16 04:06:51;;;;;;;4.53;1.03;;;16.80;99.90;;;;;;5014985;28;20201;-76
2022/10/16 04:09:17;;;;;;;1.77;1.10;;;16.70;99.90;;;;;;5014339;28;20620;-76
2022/10/16 04:11:42;;;;;;;3.80;0.87;;;16.70;99.90;;;;;;5030981;28;20183;-77
2022/10/16 04:14:08;;;;;;;1.63;1.30;;;16.80;99.90;;;;;;5031968;28;20233;-76
2022/10/16 04:16:34;;;;;;;1.60;1.10;;;16.70;99.90;;;;;;5031075;28;20739;-76
2022/10/16 04:18:59;;;;;;;3.73;1.27;;;16.80;99.90;;;;;;5014304;28;20277;-76
2022/10/16 04:21:25;;;;;;;1.17;1.07;;;16.70;99.90;;;;;;5032259;28;20556;-76
2022/10/16 04:23:51;;;;;;;2.63;0.90;;;16.60;99.90;;;;;;5030834;28;20260;-77
2022/10/16 04:26:16;;;;;;;2.50;1.13;;;16.70;99.90;;;;;;5030135;28;20575;-76
2022/10/16 04:28:42;;;;;;;0.93;0.83;;;16.70;99.90;;;;;;5031550;28;20190;-77
2022/10/16 04:31:08;;;;;;;1.83;0.97;;;16.70;99.90;;;;;;5031481;28;20185;-75
2022/10/16 04:33:33;;;;;;;2.80;1.47;;;16.70;99.90;;;;;;5031289;28;20511;-77
2022/10/16 04:36:01;;;;;;;2.40;0.70;;;16.70;99.90;;;;;;5031414;28;20206;-76
2022/10/16 04:38:27;;;;;;;1.37;1.03;;;16.70;99.90;;;;;;5032053;28;20178;-76
2022/10/16 04:40:52;;;;;;;2.60;0.90;;;16.70;99.90;;;;;;5030439;28;20424;-78
2022/10/16 04:43:18;;;;;;;1.33;0.80;;;16.70;99.90;;;;;;5030748;28;20438;-78
2022/10/16 04:45:44;;;;;;;6.77;0.90;;;16.70;99.90;;;;;;5030397;28;20268;-77
2022/10/16 04:48:10;;;;;;;0.90;0.80;;;16.80;99.90;;;;;;5032309;28;20627;-77
2022/10/16 04:50:35;;;;;;;1.30;1.00;;;16.90;99.90;;;;;;5016104;28;20691;-76
2022/10/16 04:53:01;;;;;;;0.97;0.80;;;16.90;99.90;;;;;;5032269;28;20214;-75
2022/10/16 04:55:26;;;;;;;1.50;1.00;;;16.80;99.90;;;;;;5015268;28;20781;-77
2022/10/16 04:57:52;;;;;;;2.40;1.00;;;16.80;99.90;;;;;;5032537;28;20217;-77
2022/10/16 05:00:18;;;;;;;3.40;0.93;;;16.70;99.90;;;;;;5031734;28;20181;-76
2022/10/16 05:02:43;;;;;;;4.47;1.20;;;16.70;99.90;;;;;;5030139;28;20186;-76
2022/10/16 05:05:09;;;;;;;2.27;0.93;;;16.70;99.90;;;;;;5031193;28;20259;-76
2022/10/16 05:07:35;;;;;;;2.30;1.00;;;16.70;99.90;;;;;;5013213;28;20900;-76
2022/10/16 05:10:00;;;;;;;1.47;0.80;;;16.70;99.90;;;;;;5030979;28;20439;-79
2022/10/16 05:12:26;;;;;;;1.30;1.00;;;16.70;99.90;;;;;;5030526;28;20188;-77
2022/10/16 05:14:52;;;;;;;2.00;1.00;;;16.70;99.90;;;;;;5030891;28;20324;-76
2022/10/16 05:17:17;;;;;;;2.70;1.10;;;16.80;99.90;;;;;;5028375;28;20585;-78
2022/10/16 05:19:43;;;;;;;6.10;1.10;;;16.80;99.90;;;;;;5031040;28;20211;-77
2022/10/16 05:22:09;;;;;;;1.00;0.90;;;16.80;99.90;;;;;;5013209;28;20192;-77
2022/10/16 05:24:34;;;;;;;5.27;0.80;;;16.70;99.90;;;;;;5029638;28;20314;-77
2022/10/16 05:27:00;;;;;;;2.70;0.90;;;16.60;99.90;;;;;;5031041;28;20188;-77
2022/10/16 05:29:25;;;;;;;2.67;1.10;;;16.70;99.90;;;;;;5013542;28;20194;-79
2022/10/16 05:31:52;;;;;;;3.00;0.83;;;16.70;99.90;;;;;;5013204;28;20280;-77
2022/10/16 05:34:18;;;;;;;2.20;1.00;;;16.70;99.90;;;;;;5012883;28;20217;-78
2022/10/16 05:36:45;;;;;;;1.30;1.00;;;16.60;99.90;;;;;;5031164;28;20421;-77
2022/10/16 05:39:10;;;;;;;1.70;0.90;;;16.60;99.90;;;;;;5029640;28;20425;-78
2022/10/16 05:41:36;;;;;;;1.57;0.83;;;16.60;99.90;;;;;;5031124;28;20416;-78
2022/10/16 05:44:05;;;;;;;2.13;1.30;;;16.60;99.90;;;;;;5012771;28;20433;-78
2022/10/16 05:46:31;;;;;;;0.83;0.60;;;16.50;99.90;;;;;;5029193;28;20716;-78
2022/10/16 05:48:57;;;;;;;3.73;0.93;;;16.50;99.90;;;;;;5030782;28;20424;-78
2022/10/16 05:51:23;;;;;;;4.47;1.53;;;16.50;99.90;;;;;;5013194;28;20836;-78
2022/10/16 05:53:49;;;;;;;1.67;1.30;;;16.60;99.90;;;;;;5029280;28;20310;-78
2022/10/16 05:56:15;;;;;;;3.03;1.13;;;16.60;99.90;;;;;;5030966;28;20205;-78
2022/10/16 05:58:41;;;;;;;1.37;1.00;;;16.50;99.90;;;;;;5013308;28;20201;-78
2022/10/16 06:01:13;;;;;;;3.10;1.20;;;16.50;99.90;;;;;;5029587;28;20943;-78
2022/10/16 06:03:38;;;;;;;2.30;1.00;;;16.50;99.90;;;;;;5031328;28;20436;-77
2022/10/16 06:06:12;;;;;;;3.90;1.00;;;16.40;99.90;;;;;;5029015;28;20820;-78
2022/10/16 06:08:38;;;;;;;5.50;1.10;;;16.40;99.90;;;;;;5030396;28;20646;-77
2022/10/16 06:11:07;;;;;;;7.40;0.93;;;16.40;99.90;;;;;;5030355;28;20422;-77
2022/10/16 06:13:32;;;;;;;3.47;0.97;;;16.40;99.90;;;;;;5029235;28;20463;-77
2022/10/16 06:15:59;;;;;;;1.53;1.03;;;16.40;99.90;;;;;;5028972;28;20452;-77
2022/10/16 06:18:26;;;;;;;1.60;1.00;;;16.40;99.90;;;;;;5030489;28;20182;-77
2022/10/16 06:20:51;;;;;;;4.13;1.27;;;16.40;99.90;;;;;;5029157;28;20452;-77
2022/10/16 06:23:17;;;;;;;1.73;0.80;;;16.40;99.90;;;;;;5029101;28;20467;-77
2022/10/16 06:25:43;;;;;;;1.30;0.83;;;16.50;99.90;;;;;;5030213;28;20229;-76
2022/10/16 06:28:13;;;;;;;1.50;1.00;;;16.50;99.90;;;;;;5012483;28;20762;-77
2022/10/16 06:30:39;;;;;;;1.67;0.80;;;16.50;99.90;;;;;;5031550;28;20182;-77
2022/10/16 06:33:04;;;;;;;2.33;1.10;;;16.60;99.90;;;;;;5029497;28;20471;-78
2022/10/16 06:35:31;;;;;;;1.40;0.93;;;16.60;99.90;;;;;;5029442;28;20234;-76
2022/10/16 06:37:57;;;;;;;1.10;0.97;;;16.60;99.90;;;;;;5029362;28;20635;-76
2022/10/16 06:40:23;;;;;;;5.70;1.13;;;16.60;99.90;;;;;;5027894;28;20457;-77
2022/10/16 06:42:49;;;;;;;5.37;0.90;;;16.60;99.90;;;;;;5027199;28;20273;-76
2022/10/16 06:45:14;;;;;;;1.63;0.90;;;16.70;99.90;;;;;;5027742;28;20744;-76
2022/10/16 06:47:40;;;;;;;2.30;0.90;;;16.80;99.90;;;;;;5027663;28;20187;-77
2022/10/16 06:50:07;;;;;;;4.43;0.80;;;16.90;99.90;;;;;;5029557;28;20205;-76
2022/10/16 06:52:33;;;;;;;2.80;1.10;;;16.90;99.90;;;;;;5028049;28;20247;-75
2022/10/16 06:54:59;;;;;;;3.53;0.70;;;17.00;99.90;;;;;;5027383;28;21039;-76
2022/10/16 06:57:25;;;;;;;1.80;0.87;;;17.00;99.90;;;;;;5028594;28;20876;-77
2022/10/16 06:59:51;;;;;;;2.50;0.73;;;17.10;99.90;;;;;;5028870;28;20462;-78
2022/10/16 07:02:17;;;;;;;4.60;1.27;;;17.30;99.90;;;;;;5027209;28;20447;-77
2022/10/16 07:04:42;;;;;;;1.23;0.93;;;17.30;99.90;;;;;;5027677;28;20671;-77
2022/10/16 07:07:08;;;;;;;2.80;0.70;;;17.30;99.90;;;;;;5027330;28;20178;-76
2022/10/16 07:09:33;;;;;;;1.10;0.80;;;17.30;99.90;;;;;;5010645;28;20563;-78
2022/10/16 07:11:59;;;;;;;3.00;0.93;;;17.30;99.90;;;;;;5027124;28;20187;-78
2022/10/16 07:14:24;;;;;;;1.50;0.90;;;17.40;99.90;;;;;;5010608;28;20215;-77
2022/10/16 07:16:50;;;;;;;1.10;0.80;;;17.40;99.90;;;;;;5029122;28;20180;-77
2022/10/16 07:19:17;;;;;;;4.73;1.00;;;17.40;99.90;;;;;;5028896;28;20217;-77
2022/10/16 07:21:44;;;;;;;4.53;1.03;;;17.40;99.90;;;;;;5011280;28;20736;-76
2022/10/16 07:24:16;;;;;;;1.00;0.90;;;17.50;99.90;;;;;;5028673;28;20430;-78
2022/10/16 07:26:44;;;;;;;1.30;1.10;;;17.50;99.90;;;;;;5026483;28;20436;-78
2022/10/16 07:29:19;;;;;;;4.27;1.10;;;17.50;99.90;;;;;;5028270;28;20451;-76
2022/10/16 07:31:46;;;;;;;2.90;1.17;;;17.50;99.90;;;;;;5028285;28;20425;-78
2022/10/16 07:34:13;;;;;;;2.53;0.80;;;17.50;99.90;;;;;;5028160;28;20475;-77
2022/10/16 07:36:39;;;;;;;6.73;1.30;;;17.50;99.90;;;;;;5026984;28;20954;-76
2022/10/16 07:39:04;;;;;;;8.30;1.20;;;17.60;99.90;;;;;;5010321;28;20483;-79
2022/10/16 07:41:32;;;;;;;0.90;0.80;;;17.60;99.90;;;;;;5032005;28;20185;-77
2022/10/16 07:43:59;;;;;;;1.10;1.00;;;17.60;99.90;;;;;;5031585;28;20333;-75
2022/10/16 07:46:26;;;;;;;3.37;1.07;;;17.60;99.90;;;;;;5030530;28;20453;-76
2022/10/16 07:48:52;;;;;;;3.83;1.00;;;17.60;99.90;;;;;;5031744;28;20496;-77
2022/10/16 07:51:20;;;;;;;1.20;1.03;;;17.60;99.90;;;;;;5031667;28;21064;-76
2022/10/16 07:53:46;;;;;;;1.80;1.13;;;17.60;99.90;;;;;;5031992;28;20570;-78
2022/10/16 07:56:13;;;;;;;4.77;1.07;;;17.70;99.90;;;;;;5036137;28;20436;-76
2022/10/16 07:58:39;;;;;;;1.33;0.87;;;17.70;99.90;;;;;;5036213;28;20449;-77
2022/10/16 08:01:06;;;;;;;3.47;1.30;;;17.70;99.90;;;;;;5035481;28;20417;-77
2022/10/16 08:03:33;;;;;;;1.53;0.90;;;17.70;99.90;;;;;;5035143;28;20427;-76
2022/10/16 08:05:59;;;;;;;1.13;1.00;;;17.70;99.90;;;;;;5036437;28;20528;-76
2022/10/16 08:08:25;;;;;;;1.40;0.93;;;17.80;99.90;;;;;;5034825;28;20442;-76
2022/10/16 08:10:51;;;;;;;2.23;0.70;;;17.90;99.90;;;;;;5034380;28;20507;-78
2022/10/16 08:13:16;;;;;;;6.00;1.60;;;17.90;99.90;;;;;;5031976;28;20508;-76
2022/10/16 08:15:43;;;;;;;4.50;0.80;;;18.00;99.90;;;;;;5032314;28;20214;-75
2022/10/16 08:18:10;;;;;;;0.90;0.80;;;18.10;99.90;;;;;;5032600;28;20181;-76
2022/10/16 08:20:35;;;;;;;2.90;1.10;;;18.20;99.90;;;;;;5032370;28;20420;-76
2022/10/16 08:23:01;;;;;;;5.80;1.10;;;18.20;99.90;;;;;;5031201;28;20466;-76
2022/10/16 08:25:28;;;;;;;3.13;1.13;;;18.30;99.90;;;;;;5030951;28;20203;-76
2022/10/16 08:27:53;;;;;;;1.40;1.30;;;18.30;99.90;;;;;;5029470;28;20925;-75
2022/10/16 08:30:21;;;;;;;2.23;1.07;;;18.30;99.90;;;;;;5029369;28;20457;-75
2022/10/16 08:32:46;;;;;;;2.47;1.20;;;18.30;99.90;;;;;;5028937;28;20573;-76
2022/10/16 08:35:14;;;;;;;5.50;1.20;;;18.40;99.90;;;;;;5030355;28;20436;-75
2022/10/16 08:37:41;;;;;;;2.40;1.43;;;18.40;99.90;;;;;;5028972;28;20189;-77
2022/10/16 08:40:32;;;;;;;4.23;0.80;;;18.60;99.90;;;;;;5030562;28;20428;-77
2022/10/16 08:43:31;;;;;;;3.80;1.23;;;18.60;99.90;;;;;;5030659;28;20418;-76
2022/10/16 08:46:28;;;;;;;3.27;0.80;;;18.70;99.90;;;;;;5030410;28;20473;-76
2022/10/16 08:48:56;;;;;;;2.10;1.10;;;18.90;99.90;;;;;;5030442;28;20414;-76
2022/10/16 08:51:29;;;;;;;1.10;0.90;;;19.00;99.90;;;;;;5029271;28;20430;-77
2022/10/16 08:54:16;;;;;;;4.13;0.97;;;19.10;99.90;;;;;;5032431;28;20476;-77
2022/10/16 08:56:41;;;;;;;2.43;1.30;;;19.30;99.90;;;;;;5031847;28;20421;-77
2022/10/16 08:59:10;;;;;;;1.30;0.77;;;19.30;99.90;;;;;;5012618;28;20534;-77
2022/10/16 09:01:44;;;;;;;4.50;0.97;;;19.40;99.90;;;;;;5029146;28;20191;-77
2022/10/16 09:04:26;;;;;;;3.73;0.90;;;19.40;99.90;;;;;;5029922;28;20434;-77
2022/10/16 09:07:20;;;;;;;0.97;0.87;;;19.50;99.90;;;;;;5030423;28;20430;-76
2022/10/16 09:09:58;;;;;;;1.13;0.87;;;19.50;99.90;;;;;;5029833;28;20919;-77
2022/10/16 09:12:44;;;;;;;1.90;1.00;;;19.40;99.90;;;;;;5030051;28;20418;-76
2022/10/16 09:15:31;;;;;;;2.20;1.13;;;19.40;99.90;;;;;;5030027;28;20443;-80
2022/10/16 09:18:28;;;;;;;3.20;1.07;;;19.50;99.90;;;;;;5028837;28;20429;-78
2022/10/16 09:21:25;;;;;;;3.67;1.20;;;19.60;99.90;;;;;;5030107;28;20935;-78
2022/10/16 09:23:51;;;;;;;1.80;0.80;;;19.70;99.90;;;;;;5028803;28;20408;-77
2022/10/16 09:26:19;;;;;;;3.67;1.00;;;19.90;99.90;;;;;;5029950;28;20987;-77
2022/10/16 09:28:44;;;;;;;6.07;1.10;;;20.10;99.90;;;;;;5029989;28;20423;-78
2022/10/16 09:31:19;;;;;;;2.60;1.23;;;20.30;99.90;;;;;;5011559;28;20429;-80
2022/10/16 09:33:52;;;;;;;1.97;0.83;;;20.50;99.90;;;;;;5028303;28;20560;-77
2022/10/16 09:36:19;;;;;;;1.57;1.17;;;20.70;99.90;;;;;;5029594;28;21070;-78
2022/10/16 09:38:45;;;;;;;2.10;1.00;;;20.70;99.90;;;;;;5029884;28;20425;-77
2022/10/16 09:41:21;;;;;;;3.63;1.10;;;20.60;99.90;;;;;;5027936;28;20927;-79
2022/10/16 09:44:19;;;;;;;1.70;1.13;;;20.40;99.90;;;;;;5028387;28;20231;-81
2022/10/16 09:46:45;;;;;;;1.13;0.80;;;20.30;99.90;;;;;;5029522;28;20438;-78
2022/10/16 09:49:25;;;;;;;1.60;0.97;;;20.20;99.90;;;;;;5029301;28;20485;-80
2022/10/16 09:52:04;;;;;;;7.20;1.00;;;20.10;99.90;;;;;;5027958;28;20559;-80
2022/10/16 09:54:29;;;;;;;1.10;1.00;;;20.10;99.90;;;;;;5027657;28;20999;-79
2022/10/16 09:57:11;;;;;;;4.43;0.97;;;20.30;99.90;;;;;;5029218;28;20423;-82
2022/10/16 09:59:50;;;;;;;3.70;0.93;;;20.40;99.90;;;;;;5029678;28;20184;-86
2022/10/16 10:02:26;;;;;;;3.40;1.00;;;20.30;99.90;;;;;;5011559;28;20932;-78
2022/10/16 10:04:54;;;;;;;7.00;0.97;;;20.20;99.90;;;;;;5029766;28;20442;-79
2022/10/16 10:07:38;;;;;;;2.60;1.10;;;20.20;99.90;;;;;;5029879;28;20516;-79
2022/10/16 10:10:06;;;;;;;3.87;1.10;;;20.10;99.90;;;;;;5029730;28;20980;-80
2022/10/16 10:12:34;;;;;;;6.03;1.27;;;20.10;99.90;;;;;;5011940;28;20436;-80
2022/10/16 10:15:11;;;;;;;1.77;1.30;;;20.10;99.90;;;;;;5029507;28;20554;-81
2022/10/16 10:17:49;;;;;;;5.53;1.00;;;20.20;99.90;;;;;;5012074;28;21014;-80
2022/10/16 10:20:37;;;;;;;2.93;1.33;;;20.30;99.90;;;;;;5029962;28;20419;-80
2022/10/16 10:23:21;;;;;;;3.03;1.33;;;20.30;99.90;;;;;;5029155;28;20492;-81
2022/10/16 10:26:19;;;;;;;2.40;1.00;;;20.20;99.90;;;;;;5011543;28;20534;-80
2022/10/16 10:29:12;;;;;;;4.97;1.10;;;20.30;99.90;;;;;;5025978;28;20521;-81
2022/10/16 10:31:51;;;;;;;4.30;1.20;;;20.20;99.90;;;;;;5029801;28;21277;-81
2022/10/16 10:34:41;;;;;;;1.40;1.17;;;20.20;99.90;;;;;;5029507;28;20461;-77
2022/10/16 10:37:12;;;;;;;2.40;1.13;;;20.40;99.90;;;;;;5029138;28;20414;-77
2022/10/16 10:39:46;;;;;;;2.40;1.10;;;20.70;99.90;;;;;;5027176;28;20850;-76
2022/10/16 10:42:29;;;;;;;1.47;1.00;;;21.10;99.90;;;;;;5027301;28;20429;-76
2022/10/16 10:45:04;;;;;;;1.93;1.00;;;22.00;99.90;;;;;;5028773;28;20537;-77
2022/10/16 10:47:41;;;;;;;1.40;1.10;;;22.50;99.90;;;;;;5029004;28;20414;-78
2022/10/16 10:50:10;;;;;;;1.57;0.87;;;23.00;99.90;;;;;;5028927;28;20446;-75
2022/10/16 10:53:04;;;;;;;1.30;0.97;;;23.70;99.90;;;;;;5028860;28;20427;-76
2022/10/16 10:55:32;;;;;;;0.93;0.83;;;24.10;99.90;;;;;;5028650;28;20458;-79
2022/10/16 10:58:14;;;;;;;6.73;1.53;;;24.10;98.20;;;;;;5027779;28;21060;-77
2022/10/16 11:01:00;;;;;;;5.73;0.97;;;24.70;98.40;;;;;;5028667;28;20451;-78
2022/10/16 11:03:41;;;;;;;1.03;0.60;;;25.80;99.50;;;;;;5029028;28;20780;-77
2022/10/16 11:06:40;;;;;;;3.73;1.20;;;26.70;96.60;;;;;;5028568;28;20430;-77
2022/10/16 11:09:23;;;;;;;1.00;0.90;;;27.30;91.90;;;;;;5024797;28;20423;-78
2022/10/16 11:12:12;;;;;;;3.47;0.83;;;27.00;90.10;;;;;;5028471;28;20994;-77
2022/10/16 11:14:42;;;;;;;9.17;0.90;;;26.40;90.50;;;;;;5029308;28;20477;-80
2022/10/16 11:17:37;;;;;;;6.57;0.97;;;26.10;91.00;;;;;;5033294;28;20422;-80
2022/10/16 11:20:12;;;;;;;2.37;1.27;;;26.20;91.10;;;;;;5012921;28;20519;-80
2022/10/16 11:23:11;;;;;;;4.70;1.03;;;25.20;90.50;;;;;;5033073;28;20450;-78
2022/10/16 11:25:36;;;;;;;2.17;0.70;;;25.70;90.80;;;;;;5024098;28;20453;-77
2022/10/16 11:28:31;;;;;;;4.73;1.07;;;25.90;90.10;;;;;;5032989;28;20464;-77
2022/10/16 11:31:02;;;;;;;9.60;1.00;;;26.70;91.70;;;;;;5030981;28;20673;-77
2022/10/16 11:33:52;;;;;;;5.27;1.50;;;27.30;90.60;;;;;;5032601;28;20457;-77
2022/10/16 11:36:31;;;;;;;1.13;1.03;;;27.40;91.20;;;;;;5035906;28;20470;-78
2022/10/16 11:39:23;;;;;;;9.23;1.43;;;27.40;89.60;;;;;;5036530;28;20818;-78
2022/10/16 11:41:51;;;;;;;5.30;1.00;;;27.30;89.80;;;;;;5036028;28;20474;-77
2022/10/16 11:44:44;;;;;;;2.83;1.20;;;27.20;86.80;;;;;;5033163;28;20462;-77
2022/10/16 11:47:37;;;;;;;1.50;1.40;;;27.00;87.60;;;;;;5033700;28;20422;-77
2022/10/16 11:50:26;;;;;;;1.00;0.70;;;26.50;86.50;;;;;;5033457;28;20430;-77
2022/10/16 11:53:09;;;;;;;3.50;1.10;;;26.40;86.10;;;;;;5027363;28;20419;-77
2022/10/16 11:55:43;;;;;;;2.80;0.93;;;26.40;87.30;;;;;;5035336;28;20450;-76
2022/10/16 11:58:34;;;;;;;1.33;0.93;;;26.50;84.30;;;;;;5030852;28;20481;-77
2022/10/16 12:01:08;;;;;;;5.53;1.40;;;26.70;85.50;;;;;;5031633;28;20443;-76
2022/10/16 12:03:49;;;;;;;4.00;1.20;;;26.80;85.60;;;;;;5031586;28;20496;-77
2022/10/16 12:06:19;;;;;;;2.20;0.93;;;26.80;88.40;;;;;;5032684;28;20508;-77
2022/10/16 12:08:45;;;;;;;3.67;1.13;;;26.80;86.40;;;;;;5031328;28;20419;-75
2022/10/16 12:11:20;;;;;;;3.27;1.10;;;26.90;83.80;;;;;;5030068;28;20427;-77
2022/10/16 12:13:48;;;;;;;2.80;0.80;;;26.70;83.20;;;;;;5029659;28;20492;-77
2022/10/16 12:16:14;;;;;;;1.47;1.27;;;26.60;80.80;;;;;;5012905;28;20828;-78
2022/10/16 12:18:45;;;;;;;2.50;0.97;;;27.00;84.20;;;;;;5029977;28;20962;-77
2022/10/16 12:21:18;;;;;;;5.57;4.17;;;27.20;83.70;;;;;;5014050;28;20419;-77
2022/10/16 12:24:00;;;;;;;6.17;1.80;;;27.30;85.00;;;;;;5014228;28;20912;-76
2022/10/16 12:26:27;;;;;;;3.83;1.40;;;27.30;78.40;;;;;;5030125;28;20435;-77
2022/10/16 12:28:54;;;;;;;5.60;0.80;;;27.10;80.10;;;;;;5029002;28;20465;-77
2022/10/16 12:31:21;;;;;;;3.83;1.37;;;27.20;82.90;;;;;;5012441;28;20434;-76
2022/10/16 12:34:02;;;;;;;7.90;1.50;;;27.20;81.80;;;;;;5030135;28;20461;-76
2022/10/16 12:36:36;;;;;;;1.40;1.30;;;27.20;78.60;;;;;;5030140;28;20435;-75
2022/10/16 12:39:03;;;;;;;4.73;1.20;;;27.20;82.40;;;;;;5031530;28;20411;-77
2022/10/16 12:41:29;;;;;;;1.30;1.20;;;27.10;83.10;;;;;;5031508;28;20888;-77
2022/10/16 12:43:56;;;;;;;1.87;1.00;;;26.90;79.60;;;;;;5029525;28;21170;-77
2022/10/16 12:46:23;;;;;;;1.20;1.10;;;26.70;82.60;;;;;;5031728;28;20505;-77
2022/10/16 12:48:50;;;;;;;1.97;1.03;;;26.60;82.70;;;;;;5032979;28;20420;-76
2022/10/16 12:51:28;;;;;;;1.10;0.97;;;26.60;83.10;;;;;;5031804;28;20510;-75
2022/10/16 12:54:15;;;;;;;1.87;1.30;;;26.60;82.40;;;;;;5032631;28;20473;-77
2022/10/16 12:56:59;;;;;;;2.57;1.37;;;26.50;83.10;;;;;;5031229;28;20439;-78
2022/10/16 12:59:35;;;;;;;1.57;1.17;;;26.30;79.90;;;;;;5030004;28;20419;-76
2022/10/16 13:02:06;;;;;;;1.43;1.10;;;26.10;83.20;;;;;;5030929;28;20820;-77
2022/10/16 13:05:16;;;;;;;1.43;1.20;;;26.10;86.00;;;;;;5029333;28;20458;-76
2022/10/16 13:08:33;;;;;;;1.23;1.00;;;25.90;82.60;;;;;;5029407;28;20457;-76